sensor_id;sensor_type;location;lat;lon;timestamp;P1;durP1;ratioP1;P2;durP2;ratioP2
49340;SDS011;35209;51.050;13.678;2023-02-01T00:00:47;6.43;;;3.10;;
49340;SDS011;35209;51.050;13.678;2023-02-01T00:05:55;5.82;;;2.90;;
49340;SDS011;35209;51.050;13.678;2023-02-01T00:10:59;5.65;;;2.83;;
49340;SDS011;35209;51.050;13.678;2023-02-01T00:16:06;5.60;;;2.20;;
49340;SDS011;35209;51.050;13.678;2023-02-01T00:21:19;4.93;;;2.37;;
49340;SDS011;35209;51.050;13.678;2023-02-01T00:31:43;5.55;;;2.33;;
49340;SDS011;35209;51.050;13.678;2023-02-01T00:36:46;6.53;;;3.05;;
49340;SDS011;35209;51.050;13.678;2023-02-01T00:41:47;6.32;;;2.90;;
49340;SDS011;35209;51.050;13.678;2023-02-01T00:46:49;6.20;;;2.38;;
49340;SDS011;35209;51.050;13.678;2023-02-01T00:51:51;8.65;;;2.65;;
49340;SDS011;35209;51.050;13.678;2023-02-01T00:56:53;6.60;;;2.65;;
49340;SDS011;35209;51.050;13.678;2023-02-01T01:01:55;8.90;;;3.47;;
49340;SDS011;35209;51.050;13.678;2023-02-01T01:06:56;8.73;;;3.30;;
49340;SDS011;35209;51.050;13.678;2023-02-01T01:11:58;7.30;;;2.55;;
49340;SDS011;35209;51.050;13.678;2023-02-01T01:17:05;11.52;;;2.58;;
49340;SDS011;35209;51.050;13.678;2023-02-01T01:22:06;5.80;;;2.10;;
49340;SDS011;35209;51.050;13.678;2023-02-01T01:27:08;8.38;;;2.15;;
49340;SDS011;35209;51.050;13.678;2023-02-01T01:32:10;9.48;;;2.97;;
49340;SDS011;35209;51.050;13.678;2023-02-01T01:37:11;8.35;;;2.30;;
49340;SDS011;35209;51.050;13.678;2023-02-01T01:42:13;7.05;;;2.25;;
49340;SDS011;35209;51.050;13.678;2023-02-01T01:47:15;8.80;;;2.50;;
49340;SDS011;35209;51.050;13.678;2023-02-01T01:52:17;6.78;;;2.08;;
49340;SDS011;35209;51.050;13.678;2023-02-01T01:57:23;11.15;;;2.58;;
49340;SDS011;35209;51.050;13.678;2023-02-01T02:02:30;7.00;;;2.35;;
49340;SDS011;35209;51.050;13.678;2023-02-01T02:07:34;6.07;;;1.92;;
49340;SDS011;35209;51.050;13.678;2023-02-01T02:12:39;6.80;;;1.70;;
49340;SDS011;35209;51.050;13.678;2023-02-01T02:18:00;7.80;;;2.08;;
49340;SDS011;35209;51.050;13.678;2023-02-01T02:44:49;8.55;;;2.28;;
49340;SDS011;35209;51.050;13.678;2023-02-01T02:50:41;6.72;;;2.33;;
49340;SDS011;35209;51.050;13.678;2023-02-01T02:56:07;11.25;;;2.25;;
49340;SDS011;35209;51.050;13.678;2023-02-01T03:01:30;5.90;;;1.48;;
49340;SDS011;35209;51.050;13.678;2023-02-01T03:06:52;9.20;;;2.33;;
49340;SDS011;35209;51.050;13.678;2023-02-01T03:11:57;9.52;;;1.77;;
49340;SDS011;35209;51.050;13.678;2023-02-01T03:17:24;8.80;;;2.00;;
49340;SDS011;35209;51.050;13.678;2023-02-01T03:22:32;16.15;;;3.38;;
49340;SDS011;35209;51.050;13.678;2023-02-01T03:27:41;6.25;;;1.88;;
49340;SDS011;35209;51.050;13.678;2023-02-01T03:32:55;5.55;;;2.75;;
49340;SDS011;35209;51.050;13.678;2023-02-01T03:43:48;6.22;;;2.25;;
49340;SDS011;35209;51.050;13.678;2023-02-01T03:48:51;9.93;;;1.73;;
49340;SDS011;35209;51.050;13.678;2023-02-01T03:53:55;14.93;;;2.95;;
49340;SDS011;35209;51.050;13.678;2023-02-01T03:58:58;7.40;;;1.80;;
49340;SDS011;35209;51.050;13.678;2023-02-01T04:04:04;7.20;;;2.25;;
49340;SDS011;35209;51.050;13.678;2023-02-01T04:09:07;12.48;;;3.03;;
49340;SDS011;35209;51.050;13.678;2023-02-01T04:14:09;8.00;;;1.75;;
49340;SDS011;35209;51.050;13.678;2023-02-01T04:19:10;8.20;;;2.05;;
49340;SDS011;35209;51.050;13.678;2023-02-01T04:24:12;6.95;;;2.10;;
49340;SDS011;35209;51.050;13.678;2023-02-01T04:29:14;6.82;;;1.90;;
49340;SDS011;35209;51.050;13.678;2023-02-01T04:34:16;10.60;;;2.65;;
49340;SDS011;35209;51.050;13.678;2023-02-01T04:39:18;11.27;;;2.40;;
49340;SDS011;35209;51.050;13.678;2023-02-01T04:44:19;6.18;;;2.10;;
49340;SDS011;35209;51.050;13.678;2023-02-01T04:49:21;6.70;;;2.15;;
49340;SDS011;35209;51.050;13.678;2023-02-01T04:54:23;13.98;;;3.28;;
49340;SDS011;35209;51.050;13.678;2023-02-01T04:59:25;8.93;;;2.10;;
49340;SDS011;35209;51.050;13.678;2023-02-01T05:04:27;14.93;;;2.22;;
49340;SDS011;35209;51.050;13.678;2023-02-01T05:09:29;8.15;;;2.17;;
49340;SDS011;35209;51.050;13.678;2023-02-01T05:14:31;6.93;;;2.13;;
49340;SDS011;35209;51.050;13.678;2023-02-01T05:19:32;14.40;;;2.30;;
49340;SDS011;35209;51.050;13.678;2023-02-01T05:24:34;11.30;;;2.10;;
49340;SDS011;35209;51.050;13.678;2023-02-01T05:29:36;12.23;;;2.30;;
49340;SDS011;35209;51.050;13.678;2023-02-01T05:34:38;11.10;;;2.97;;
49340;SDS011;35209;51.050;13.678;2023-02-01T05:39:40;12.52;;;1.95;;
49340;SDS011;35209;51.050;13.678;2023-02-01T05:44:42;6.50;;;2.22;;
49340;SDS011;35209;51.050;13.678;2023-02-01T05:49:44;7.18;;;2.60;;
49340;SDS011;35209;51.050;13.678;2023-02-01T05:54:45;14.38;;;2.10;;
49340;SDS011;35209;51.050;13.678;2023-02-01T05:59:48;11.93;;;2.45;;
49340;SDS011;35209;51.050;13.678;2023-02-01T06:04:50;13.52;;;3.08;;
49340;SDS011;35209;51.050;13.678;2023-02-01T06:09:52;9.20;;;2.78;;
49340;SDS011;35209;51.050;13.678;2023-02-01T06:14:54;7.53;;;1.80;;
49340;SDS011;35209;51.050;13.678;2023-02-01T06:19:55;23.52;;;4.05;;
49340;SDS011;35209;51.050;13.678;2023-02-01T06:24:57;11.32;;;2.50;;
49340;SDS011;35209;51.050;13.678;2023-02-01T06:30:00;16.73;;;2.28;;
49340;SDS011;35209;51.050;13.678;2023-02-01T06:35:02;12.55;;;2.65;;
49340;SDS011;35209;51.050;13.678;2023-02-01T06:40:04;8.18;;;3.00;;
49340;SDS011;35209;51.050;13.678;2023-02-01T06:45:06;10.10;;;2.90;;
49340;SDS011;35209;51.050;13.678;2023-02-01T06:50:09;7.70;;;2.42;;
49340;SDS011;35209;51.050;13.678;2023-02-01T06:55:11;11.00;;;2.25;;
49340;SDS011;35209;51.050;13.678;2023-02-01T07:00:13;5.15;;;1.83;;
49340;SDS011;35209;51.050;13.678;2023-02-01T07:05:15;8.48;;;2.30;;
49340;SDS011;35209;51.050;13.678;2023-02-01T07:10:17;14.18;;;3.15;;
49340;SDS011;35209;51.050;13.678;2023-02-01T07:15:19;10.65;;;3.13;;
49340;SDS011;35209;51.050;13.678;2023-02-01T07:20:21;7.35;;;2.85;;
49340;SDS011;35209;51.050;13.678;2023-02-01T07:25:24;11.90;;;2.67;;
49340;SDS011;35209;51.050;13.678;2023-02-01T07:30:25;12.25;;;2.95;;
49340;SDS011;35209;51.050;13.678;2023-02-01T07:35:28;10.57;;;2.90;;
49340;SDS011;35209;51.050;13.678;2023-02-01T07:40:30;8.80;;;2.17;;
49340;SDS011;35209;51.050;13.678;2023-02-01T07:45:31;15.98;;;3.00;;
49340;SDS011;35209;51.050;13.678;2023-02-01T07:50:37;11.65;;;2.50;;
49340;SDS011;35209;51.050;13.678;2023-02-01T07:55:39;13.10;;;2.60;;
49340;SDS011;35209;51.050;13.678;2023-02-01T08:00:41;11.27;;;2.65;;
49340;SDS011;35209;51.050;13.678;2023-02-01T08:06:01;10.40;;;2.38;;
49340;SDS011;35209;51.050;13.678;2023-02-01T08:11:04;9.00;;;2.67;;
49340;SDS011;35209;51.050;13.678;2023-02-01T08:16:08;9.95;;;2.47;;
49340;SDS011;35209;51.050;13.678;2023-02-01T08:21:12;9.02;;;2.97;;
49340;SDS011;35209;51.050;13.678;2023-02-01T08:31:25;8.65;;;2.63;;
49340;SDS011;35209;51.050;13.678;2023-02-01T08:36:29;8.02;;;2.78;;
49340;SDS011;35209;51.050;13.678;2023-02-01T08:41:31;7.60;;;2.38;;
49340;SDS011;35209;51.050;13.678;2023-02-01T08:46:33;8.07;;;2.40;;
49340;SDS011;35209;51.050;13.678;2023-02-01T08:51:35;15.20;;;2.78;;
49340;SDS011;35209;51.050;13.678;2023-02-01T08:56:37;10.75;;;2.50;;
49340;SDS011;35209;51.050;13.678;2023-02-01T09:01:38;9.63;;;2.63;;
49340;SDS011;35209;51.050;13.678;2023-02-01T09:06:40;10.93;;;3.25;;
49340;SDS011;35209;51.050;13.678;2023-02-01T09:11:42;6.65;;;1.85;;
49340;SDS011;35209;51.050;13.678;2023-02-01T09:16:44;7.00;;;2.17;;
49340;SDS011;35209;51.050;13.678;2023-02-01T09:21:45;5.68;;;2.22;;
49340;SDS011;35209;51.050;13.678;2023-02-01T09:26:47;6.18;;;1.73;;
49340;SDS011;35209;51.050;13.678;2023-02-01T09:31:49;7.63;;;2.08;;
49340;SDS011;35209;51.050;13.678;2023-02-01T09:37:03;7.43;;;2.25;;
49340;SDS011;35209;51.050;13.678;2023-02-01T09:47:22;11.82;;;2.67;;
49340;SDS011;35209;51.050;13.678;2023-02-01T09:52:31;11.43;;;2.92;;
49340;SDS011;35209;51.050;13.678;2023-02-01T09:57:41;8.27;;;2.65;;
49340;SDS011;35209;51.050;13.678;2023-02-01T10:02:49;8.45;;;2.05;;
49340;SDS011;35209;51.050;13.678;2023-02-01T10:08:01;5.32;;;1.77;;
49340;SDS011;35209;51.050;13.678;2023-02-01T10:18:47;10.85;;;2.40;;
49340;SDS011;35209;51.050;13.678;2023-02-01T10:29:19;3.90;;;1.47;;
49340;SDS011;35209;51.050;13.678;2023-02-01T10:34:26;15.15;;;2.53;;
49340;SDS011;35209;51.050;13.678;2023-02-01T10:39:31;8.10;;;3.00;;
49340;SDS011;35209;51.050;13.678;2023-02-01T10:44:33;6.90;;;2.28;;
49340;SDS011;35209;51.050;13.678;2023-02-01T10:55:27;14.13;;;3.63;;
49340;SDS011;35209;51.050;13.678;2023-02-01T11:00:34;9.25;;;2.88;;
49340;SDS011;35209;51.050;13.678;2023-02-01T11:05:45;11.07;;;2.80;;
49340;SDS011;35209;51.050;13.678;2023-02-01T11:10:56;9.38;;;2.33;;
49340;SDS011;35209;51.050;13.678;2023-02-01T11:16:03;6.35;;;2.00;;
49340;SDS011;35209;51.050;13.678;2023-02-01T11:21:06;11.50;;;3.00;;
49340;SDS011;35209;51.050;13.678;2023-02-01T11:26:23;6.95;;;2.42;;
49340;SDS011;35209;51.050;13.678;2023-02-01T11:31:27;13.88;;;2.72;;
49340;SDS011;35209;51.050;13.678;2023-02-01T11:36:30;6.78;;;2.20;;
49340;SDS011;35209;51.050;13.678;2023-02-01T11:41:34;8.43;;;2.08;;
49340;SDS011;35209;51.050;13.678;2023-02-01T11:46:41;7.13;;;2.20;;
49340;SDS011;35209;51.050;13.678;2023-02-01T11:51:52;11.57;;;2.63;;
49340;SDS011;35209;51.050;13.678;2023-02-01T12:18:02;9.90;;;2.15;;
49340;SDS011;35209;51.050;13.678;2023-02-01T12:23:15;8.45;;;1.70;;
49340;SDS011;35209;51.050;13.678;2023-02-01T12:49:20;6.45;;;1.77;;
49340;SDS011;35209;51.050;13.678;2023-02-01T12:54:34;13.20;;;2.30;;
49340;SDS011;35209;51.050;13.678;2023-02-01T13:05:05;5.15;;;1.88;;
49340;SDS011;35209;51.050;13.678;2023-02-01T13:10:21;6.63;;;1.70;;
49340;SDS011;35209;51.050;13.678;2023-02-01T13:15:33;8.30;;;2.30;;
49340;SDS011;35209;51.050;13.678;2023-02-01T13:21:27;7.97;;;2.15;;
49340;SDS011;35209;51.050;13.678;2023-02-01T13:26:08;5.63;;;1.88;;
49340;SDS011;35209;51.050;13.678;2023-02-01T13:31:16;9.18;;;2.42;;
49340;SDS011;35209;51.050;13.678;2023-02-01T13:41:56;8.50;;;2.38;;
49340;SDS011;35209;51.050;13.678;2023-02-01T13:47:02;6.70;;;1.77;;
49340;SDS011;35209;51.050;13.678;2023-02-01T13:52:45;10.07;;;1.98;;
49340;SDS011;35209;51.050;13.678;2023-02-01T13:57:42;5.13;;;1.42;;
49340;SDS011;35209;51.050;13.678;2023-02-01T14:02:47;5.55;;;2.28;;
49340;SDS011;35209;51.050;13.678;2023-02-01T14:23:40;6.72;;;1.63;;
49340;SDS011;35209;51.050;13.678;2023-02-01T14:28:51;8.32;;;1.85;;
49340;SDS011;35209;51.050;13.678;2023-02-01T14:34:22;6.47;;;1.75;;
49340;SDS011;35209;51.050;13.678;2023-02-01T14:39:27;4.28;;;1.75;;
49340;SDS011;35209;51.050;13.678;2023-02-01T14:44:39;6.20;;;2.00;;
49340;SDS011;35209;51.050;13.678;2023-02-01T14:50:03;4.80;;;1.80;;
49340;SDS011;35209;51.050;13.678;2023-02-01T15:00:37;6.45;;;2.33;;
49340;SDS011;35209;51.050;13.678;2023-02-01T15:05:39;6.95;;;2.50;;
49340;SDS011;35209;51.050;13.678;2023-02-01T15:10:42;5.22;;;1.80;;
49340;SDS011;35209;51.050;13.678;2023-02-01T15:15:59;6.40;;;1.90;;
49340;SDS011;35209;51.050;13.678;2023-02-01T15:21:03;5.90;;;2.00;;
49340;SDS011;35209;51.050;13.678;2023-02-01T15:26:27;4.85;;;1.98;;
49340;SDS011;35209;51.050;13.678;2023-02-01T15:31:31;6.63;;;1.95;;
49340;SDS011;35209;51.050;13.678;2023-02-01T15:36:42;7.07;;;2.50;;
49340;SDS011;35209;51.050;13.678;2023-02-01T15:42:09;10.07;;;2.67;;
49340;SDS011;35209;51.050;13.678;2023-02-01T15:47:18;5.03;;;1.40;;
49340;SDS011;35209;51.050;13.678;2023-02-01T15:52:27;4.43;;;1.90;;
49340;SDS011;35209;51.050;13.678;2023-02-01T15:57:42;5.78;;;2.08;;
49340;SDS011;35209;51.050;13.678;2023-02-01T16:02:52;6.88;;;1.75;;
49340;SDS011;35209;51.050;13.678;2023-02-01T16:08:16;10.07;;;2.55;;
49340;SDS011;35209;51.050;13.678;2023-02-01T16:13:23;5.78;;;2.05;;
49340;SDS011;35209;51.050;13.678;2023-02-01T16:18:24;6.88;;;2.17;;
49340;SDS011;35209;51.050;13.678;2023-02-01T16:23:26;8.27;;;2.55;;
49340;SDS011;35209;51.050;13.678;2023-02-01T16:28:32;6.88;;;2.72;;
49340;SDS011;35209;51.050;13.678;2023-02-01T16:33:34;7.20;;;2.60;;
49340;SDS011;35209;51.050;13.678;2023-02-01T16:38:36;8.63;;;2.92;;
49340;SDS011;35209;51.050;13.678;2023-02-01T16:43:38;5.43;;;2.95;;
49340;SDS011;35209;51.050;13.678;2023-02-01T16:48:40;6.55;;;2.58;;
49340;SDS011;35209;51.050;13.678;2023-02-01T16:53:44;8.35;;;2.80;;
49340;SDS011;35209;51.050;13.678;2023-02-01T16:58:55;6.97;;;2.88;;
49340;SDS011;35209;51.050;13.678;2023-02-01T17:03:57;9.07;;;2.75;;
49340;SDS011;35209;51.050;13.678;2023-02-01T17:08:59;6.65;;;2.53;;
49340;SDS011;35209;51.050;13.678;2023-02-01T17:14:13;2.05;;;0.85;;
49340;SDS011;35209;51.050;13.678;2023-02-01T17:19:20;0.80;;;0.55;;
49340;SDS011;35209;51.050;13.678;2023-02-01T17:24:26;0.95;;;0.50;;
49340;SDS011;35209;51.050;13.678;2023-02-01T17:29:46;0.20;;;0.20;;
49340;SDS011;35209;51.050;13.678;2023-02-01T17:34:49;0.50;;;0.30;;
49340;SDS011;35209;51.050;13.678;2023-02-01T17:39:51;1.70;;;0.90;;
49340;SDS011;35209;51.050;13.678;2023-02-01T17:44:57;7.05;;;1.77;;
49340;SDS011;35209;51.050;13.678;2023-02-01T17:50:01;2.40;;;0.85;;
49340;SDS011;35209;51.050;13.678;2023-02-01T17:55:09;0.90;;;0.90;;
49340;SDS011;35209;51.050;13.678;2023-02-01T18:00:18;3.40;;;1.00;;
49340;SDS011;35209;51.050;13.678;2023-02-01T18:05:22;2.33;;;0.80;;
49340;SDS011;35209;51.050;13.678;2023-02-01T18:10:27;3.40;;;1.05;;
49340;SDS011;35209;51.050;13.678;2023-02-01T18:15:29;3.13;;;1.20;;
49340;SDS011;35209;51.050;13.678;2023-02-01T18:20:32;4.28;;;2.00;;
49340;SDS011;35209;51.050;13.678;2023-02-01T18:25:36;4.63;;;0.93;;
49340;SDS011;35209;51.050;13.678;2023-02-01T18:30:39;3.85;;;0.70;;
49340;SDS011;35209;51.050;13.678;2023-02-01T18:35:41;3.97;;;1.13;;
49340;SDS011;35209;51.050;13.678;2023-02-01T18:40:50;3.58;;;0.90;;
49340;SDS011;35209;51.050;13.678;2023-02-01T18:45:53;7.30;;;1.23;;
49340;SDS011;35209;51.050;13.678;2023-02-01T18:50:55;5.20;;;1.08;;
49340;SDS011;35209;51.050;13.678;2023-02-01T18:55:58;2.88;;;0.80;;
49340;SDS011;35209;51.050;13.678;2023-02-01T19:01:03;4.30;;;1.02;;
49340;SDS011;35209;51.050;13.678;2023-02-01T19:06:07;3.33;;;0.93;;
49340;SDS011;35209;51.050;13.678;2023-02-01T19:11:09;2.15;;;0.85;;
49340;SDS011;35209;51.050;13.678;2023-02-01T19:16:11;3.63;;;1.23;;
49340;SDS011;35209;51.050;13.678;2023-02-01T19:21:14;3.28;;;0.90;;
49340;SDS011;35209;51.050;13.678;2023-02-01T19:26:16;2.80;;;1.05;;
49340;SDS011;35209;51.050;13.678;2023-02-01T19:31:18;2.65;;;1.25;;
49340;SDS011;35209;51.050;13.678;2023-02-01T19:36:20;2.88;;;0.70;;
49340;SDS011;35209;51.050;13.678;2023-02-01T19:41:22;3.50;;;0.60;;
49340;SDS011;35209;51.050;13.678;2023-02-01T19:46:24;2.00;;;0.95;;
49340;SDS011;35209;51.050;13.678;2023-02-01T19:51:26;2.63;;;0.73;;
49340;SDS011;35209;51.050;13.678;2023-02-01T19:56:28;3.00;;;1.17;;
49340;SDS011;35209;51.050;13.678;2023-02-01T20:01:30;3.08;;;0.85;;
49340;SDS011;35209;51.050;13.678;2023-02-01T20:06:34;3.65;;;1.55;;
49340;SDS011;35209;51.050;13.678;2023-02-01T20:11:39;4.00;;;1.00;;
49340;SDS011;35209;51.050;13.678;2023-02-01T20:16:41;2.33;;;1.00;;
49340;SDS011;35209;51.050;13.678;2023-02-01T20:21:43;4.80;;;1.55;;
49340;SDS011;35209;51.050;13.678;2023-02-01T20:26:46;6.78;;;1.40;;
49340;SDS011;35209;51.050;13.678;2023-02-01T20:31:49;4.82;;;1.10;;
49340;SDS011;35209;51.050;13.678;2023-02-01T20:36:51;3.97;;;0.90;;
49340;SDS011;35209;51.050;13.678;2023-02-01T20:41:53;4.00;;;1.77;;
49340;SDS011;35209;51.050;13.678;2023-02-01T20:46:56;2.67;;;0.98;;
49340;SDS011;35209;51.050;13.678;2023-02-01T20:51:59;4.35;;;1.10;;
49340;SDS011;35209;51.050;13.678;2023-02-01T20:57:00;3.50;;;0.90;;
49340;SDS011;35209;51.050;13.678;2023-02-01T21:02:02;1.40;;;0.60;;
49340;SDS011;35209;51.050;13.678;2023-02-01T21:07:04;2.22;;;1.10;;
49340;SDS011;35209;51.050;13.678;2023-02-01T21:12:06;1.88;;;0.88;;
49340;SDS011;35209;51.050;13.678;2023-02-01T21:17:08;3.13;;;0.90;;
49340;SDS011;35209;51.050;13.678;2023-02-01T21:22:10;2.67;;;1.27;;
49340;SDS011;35209;51.050;13.678;2023-02-01T21:27:12;2.80;;;0.90;;
49340;SDS011;35209;51.050;13.678;2023-02-01T21:32:14;3.78;;;1.10;;
49340;SDS011;35209;51.050;13.678;2023-02-01T21:37:16;3.20;;;0.95;;
49340;SDS011;35209;51.050;13.678;2023-02-01T21:42:18;4.18;;;1.30;;
49340;SDS011;35209;51.050;13.678;2023-02-01T21:47:22;3.63;;;1.05;;
49340;SDS011;35209;51.050;13.678;2023-02-01T21:52:26;4.38;;;0.90;;
49340;SDS011;35209;51.050;13.678;2023-02-01T21:57:28;6.70;;;1.52;;
49340;SDS011;35209;51.050;13.678;2023-02-01T22:02:30;2.78;;;0.90;;
49340;SDS011;35209;51.050;13.678;2023-02-01T22:07:32;7.57;;;1.95;;
49340;SDS011;35209;51.050;13.678;2023-02-01T22:12:36;2.83;;;1.20;;
49340;SDS011;35209;51.050;13.678;2023-02-01T22:17:37;5.65;;;1.50;;
49340;SDS011;35209;51.050;13.678;2023-02-01T22:22:39;4.00;;;1.63;;
49340;SDS011;35209;51.050;13.678;2023-02-01T22:27:41;4.82;;;2.03;;
49340;SDS011;35209;51.050;13.678;2023-02-01T22:33:03;5.25;;;1.88;;
49340;SDS011;35209;51.050;13.678;2023-02-01T22:38:04;3.80;;;1.50;;
49340;SDS011;35209;51.050;13.678;2023-02-01T22:43:06;5.05;;;1.70;;
49340;SDS011;35209;51.050;13.678;2023-02-01T22:48:08;4.30;;;1.70;;
49340;SDS011;35209;51.050;13.678;2023-02-01T22:53:10;5.65;;;1.92;;
49340;SDS011;35209;51.050;13.678;2023-02-01T22:58:12;4.05;;;1.80;;
49340;SDS011;35209;51.050;13.678;2023-02-01T23:03:14;5.05;;;1.85;;
49340;SDS011;35209;51.050;13.678;2023-02-01T23:08:15;4.45;;;1.30;;
49340;SDS011;35209;51.050;13.678;2023-02-01T23:13:17;4.35;;;1.08;;
49340;SDS011;35209;51.050;13.678;2023-02-01T23:18:19;7.65;;;1.77;;
49340;SDS011;35209;51.050;13.678;2023-02-01T23:23:20;6.15;;;1.30;;
49340;SDS011;35209;51.050;13.678;2023-02-01T23:28:22;4.32;;;1.50;;
49340;SDS011;35209;51.050;13.678;2023-02-01T23:33:24;2.78;;;0.95;;
49340;SDS011;35209;51.050;13.678;2023-02-01T23:38:27;3.55;;;1.00;;
49340;SDS011;35209;51.050;13.678;2023-02-01T23:43:29;7.55;;;1.83;;
49340;SDS011;35209;51.050;13.678;2023-02-01T23:48:50;6.65;;;1.00;;
49340;SDS011;35209;51.050;13.678;2023-02-01T23:53:53;5.18;;;1.35;;
49340;SDS011;35209;51.050;13.678;2023-02-01T23:58:55;3.45;;;1.65;;
